createdAt,value
2022-10-08T00:04:25.285Z,7.53
2022-10-08T00:09:26.768Z,7.35
2022-10-08T00:14:28.268Z,9.02
2022-10-08T00:19:29.720Z,10.25
2022-10-08T00:24:31.886Z,6.50
2022-10-08T00:29:33.503Z,7.38
2022-10-08T00:34:35.108Z,8.07
2022-10-08T00:39:36.598Z,6.15
2022-10-08T00:44:54.665Z,8.85
2022-10-08T00:50:00.597Z,9.43
2022-10-08T00:55:06.510Z,12.35
2022-10-08T01:00:11.679Z,9.27
2022-10-08T01:05:16.857Z,10.38
2022-10-08T01:10:27.514Z,7.32
2022-10-08T01:20:39.451Z,5.25
2022-10-08T01:25:56.658Z,7.25
2022-10-08T01:31:13.458Z,5.90
2022-10-08T01:36:18.045Z,7.50
2022-10-08T01:41:22.667Z,6.47
2022-10-08T01:46:28.058Z,7.32
2022-10-08T01:51:34.375Z,15.02
2022-10-08T01:56:40.023Z,16.30
2022-10-08T02:02:10.683Z,15.77
2022-10-08T02:12:41.522Z,15.52
2022-10-08T02:17:50.371Z,12.10
2022-10-08T02:23:06.756Z,16.00
2022-10-08T02:28:25.918Z,14.77
2022-10-08T02:33:34.580Z,15.80
2022-10-08T02:38:44.833Z,18.13
2022-10-08T02:43:49.798Z,20.95
2022-10-08T02:49:08.230Z,16.85
2022-10-08T02:54:10.473Z,14.10
2022-10-08T02:59:12.872Z,17.90
2022-10-08T03:04:43.580Z,21.15
2022-10-08T03:14:49.582Z,17.23
2022-10-08T03:19:51.706Z,17.10
2022-10-08T03:24:56.710Z,16.85
2022-10-08T03:29:58.405Z,16.25
2022-10-08T03:34:59.815Z,18.05
2022-10-08T03:40:02.114Z,16.15
2022-10-08T03:45:04.251Z,24.95
2022-10-08T03:50:06.203Z,15.57
2022-10-08T03:55:08.233Z,17.80
2022-10-08T04:00:10.228Z,18.60
2022-10-08T04:05:11.899Z,14.32
2022-10-08T04:10:13.429Z,12.55
2022-10-08T04:15:15.038Z,15.10
2022-10-08T04:20:16.679Z,17.88
2022-10-08T04:25:18.240Z,18.02
2022-10-08T04:30:19.660Z,14.43
2022-10-08T04:35:21.116Z,15.77
2022-10-08T04:40:22.590Z,14.63
2022-10-08T04:45:24.093Z,11.43
2022-10-08T04:50:25.608Z,16.27
2022-10-08T04:55:27.081Z,14.27
2022-10-08T05:00:28.766Z,10.77
2022-10-08T05:05:30.279Z,16.50
2022-10-08T05:10:31.722Z,14.02
2022-10-08T05:15:35.111Z,22.77
2022-10-08T05:20:37.039Z,12.40
2022-10-08T05:25:38.693Z,10.00
2022-10-08T05:30:40.120Z,10.90
2022-10-08T05:35:41.530Z,14.57
2022-10-08T05:40:42.947Z,10.75
2022-10-08T05:45:51.736Z,10.50
2022-10-08T05:50:53.552Z,9.30
2022-10-08T05:56:07.199Z,9.77
2022-10-08T06:01:21.302Z,10.80
2022-10-08T06:06:24.127Z,10.88
2022-10-08T06:11:30.031Z,11.32
2022-10-08T06:16:31.909Z,13.02
2022-10-08T06:21:34.641Z,11.63
2022-10-08T06:26:39.337Z,14.25
2022-10-08T06:31:41.249Z,9.70
2022-10-08T06:36:43.077Z,15.35
2022-10-08T06:41:44.745Z,9.07
2022-10-08T06:46:46.381Z,12.32
2022-10-08T06:51:47.855Z,9.30
2022-10-08T06:56:49.280Z,10.43
2022-10-08T07:01:50.688Z,13.75
2022-10-08T07:06:52.159Z,11.18
2022-10-08T07:11:53.644Z,11.15
2022-10-08T07:16:55.134Z,9.93
2022-10-08T07:22:01.022Z,8.68
2022-10-08T07:27:02.906Z,12.60
2022-10-08T07:32:04.391Z,15.50
2022-10-08T07:37:05.813Z,8.57
2022-10-08T07:42:07.318Z,9.27
2022-10-08T07:47:09.236Z,7.78
2022-10-08T07:52:10.684Z,9.75
2022-10-08T07:57:12.149Z,9.05
2022-10-08T08:02:13.673Z,10.68
2022-10-08T08:07:15.251Z,8.00
2022-10-08T08:12:16.831Z,8.02
2022-10-08T08:17:18.349Z,10.00
2022-10-08T08:22:19.845Z,6.43
2022-10-08T08:27:22.202Z,7.18
2022-10-08T08:32:28.220Z,9.35
2022-10-08T08:37:30.213Z,10.40
2022-10-08T08:42:56.816Z,9.52
2022-10-08T08:48:05.903Z,6.72
2022-10-08T08:53:10.169Z,10.23
2022-10-08T08:58:21.067Z,6.38
2022-10-08T09:03:28.539Z,6.63
2022-10-08T09:08:40.474Z,9.82
2022-10-08T09:13:52.578Z,5.78
2022-10-08T09:18:54.801Z,5.32
2022-10-08T09:23:56.560Z,6.13
2022-10-08T09:29:00.121Z,6.85
2022-10-08T09:34:13.120Z,8.48
2022-10-08T09:39:20.744Z,7.30
2022-10-08T09:44:23.199Z,7.53
2022-10-08T09:49:33.568Z,6.80
2022-10-08T09:54:41.574Z,7.13
2022-10-08T09:59:59.826Z,8.27
2022-10-08T10:05:04.020Z,5.57
2022-10-08T10:10:15.885Z,5.38
2022-10-08T10:15:31.359Z,7.75
2022-10-08T10:20:41.898Z,8.30
2022-10-08T10:25:48.557Z,6.50
2022-10-08T10:30:58.509Z,5.55
2022-10-08T10:36:04.710Z,8.80
2022-10-08T10:41:15.819Z,6.45
2022-10-08T10:46:47.005Z,6.78
2022-10-08T10:52:07.242Z,6.65
2022-10-08T10:57:19.760Z,6.13
2022-10-08T11:02:31.046Z,7.82
2022-10-08T11:07:53.533Z,7.38
2022-10-08T11:13:17.929Z,5.05
2022-10-08T11:18:34.624Z,3.95
2022-10-08T11:23:42.231Z,6.38
2022-10-08T11:29:00.488Z,3.42
2022-10-08T11:34:03.861Z,5.10
2022-10-08T11:39:41.695Z,2.05
2022-10-08T11:44:43.259Z,4.18
2022-10-08T11:49:53.114Z,3.67
2022-10-08T11:54:56.021Z,1.77
2022-10-08T12:00:24.123Z,2.97
2022-10-08T12:05:36.585Z,5.13
2022-10-08T12:10:39.975Z,3.65
2022-10-08T12:15:42.909Z,4.35
2022-10-08T12:20:44.700Z,2.85
2022-10-08T12:26:09.016Z,4.25
2022-10-08T12:31:33.395Z,2.53
2022-10-08T12:36:43.677Z,5.30
2022-10-08T12:42:02.044Z,2.00
2022-10-08T12:47:14.638Z,2.17
2022-10-08T12:52:20.912Z,1.42
2022-10-08T12:57:26.802Z,3.05
2022-10-08T13:02:34.898Z,2.85
2022-10-08T13:07:36.385Z,1.27
2022-10-08T13:12:37.816Z,2.47
2022-10-08T13:17:39.300Z,2.40
2022-10-08T13:22:40.812Z,2.45
2022-10-08T13:27:42.235Z,2.72
2022-10-08T13:32:43.707Z,5.45
2022-10-08T13:37:54.338Z,1.75
2022-10-08T13:42:58.817Z,1.92
2022-10-08T13:48:00.630Z,3.17
2022-10-08T13:53:02.149Z,1.67
2022-10-08T13:58:05.926Z,2.47
2022-10-08T14:03:08.179Z,1.25
2022-10-08T14:08:23.041Z,3.67
2022-10-08T14:13:25.395Z,3.72
2022-10-08T14:18:26.894Z,2.70
2022-10-08T14:23:28.319Z,1.00
2022-10-08T14:28:29.890Z,3.28
2022-10-08T14:33:31.480Z,4.28
2022-10-08T14:38:34.082Z,2.35
2022-10-08T14:43:35.818Z,3.28
2022-10-08T14:48:39.300Z,4.88
2022-10-08T14:53:41.832Z,4.38
2022-10-08T14:58:43.411Z,4.45
2022-10-08T15:03:45.924Z,3.20
2022-10-08T15:08:47.708Z,3.60
2022-10-08T15:13:49.191Z,2.50
2022-10-08T15:18:50.588Z,3.40
2022-10-08T15:23:54.959Z,2.40
2022-10-08T15:28:56.471Z,2.08
2022-10-08T15:33:59.820Z,2.40
2022-10-08T15:39:11.888Z,4.70
2022-10-08T15:44:24.498Z,6.90
2022-10-08T15:49:33.916Z,3.13
2022-10-08T15:54:39.755Z,5.30
2022-10-08T15:59:42.838Z,3.10
2022-10-08T16:04:45.868Z,1.65
2022-10-08T16:09:47.481Z,4.75
2022-10-08T16:14:49.009Z,2.10
2022-10-08T16:19:50.704Z,1.48
2022-10-08T16:24:52.254Z,1.75
2022-10-08T16:29:53.738Z,11.63
2022-10-08T16:34:55.196Z,3.58
2022-10-08T16:39:57.444Z,6.22
2022-10-08T16:44:58.950Z,3.08
2022-10-08T16:50:00.545Z,2.10
2022-10-08T16:55:02.066Z,5.00
2022-10-08T17:00:04.770Z,2.50
2022-10-08T17:05:07.481Z,4.43
2022-10-08T17:10:09.514Z,9.63
2022-10-08T17:15:11.386Z,7.55
2022-10-08T17:20:12.844Z,5.13
2022-10-08T17:25:14.279Z,5.35
2022-10-08T17:30:15.896Z,4.70
2022-10-08T17:35:17.363Z,7.32
2022-10-08T17:40:18.823Z,6.00
2022-10-08T17:45:22.136Z,15.80
2022-10-08T17:55:25.111Z,22.55
2022-10-08T18:00:27.308Z,12.93
2022-10-08T18:05:28.783Z,8.18
2022-10-08T18:10:30.239Z,5.97
2022-10-08T18:15:31.735Z,5.65
2022-10-08T18:20:33.237Z,10.23
2022-10-08T18:25:35.766Z,11.57
2022-10-08T18:30:37.244Z,10.88
2022-10-08T18:35:38.704Z,11.05
2022-10-08T18:40:40.177Z,12.18
2022-10-08T18:45:41.796Z,11.95
2022-10-08T18:50:43.263Z,6.32
2022-10-08T18:55:50.542Z,8.05
2022-10-08T19:00:52.039Z,7.20
2022-10-08T19:05:53.933Z,6.97
2022-10-08T19:10:55.451Z,9.63
2022-10-08T19:15:56.973Z,5.50
2022-10-08T19:21:06.700Z,9.63
2022-10-08T19:26:08.502Z,12.27
2022-10-08T19:31:24.206Z,8.75
2022-10-08T19:36:28.444Z,12.40
2022-10-08T19:41:31.284Z,7.90
2022-10-08T19:46:33.366Z,9.07
2022-10-08T19:51:35.444Z,10.57
2022-10-08T19:56:37.051Z,7.78
2022-10-08T20:01:39.889Z,7.13
2022-10-08T20:06:42.943Z,5.60
2022-10-08T20:11:45.776Z,8.07
2022-10-08T20:16:47.283Z,3.92
2022-10-08T20:21:50.600Z,7.85
2022-10-08T20:26:52.240Z,4.75
2022-10-08T20:31:55.350Z,5.38
2022-10-08T20:36:59.108Z,6.43
2022-10-08T20:42:00.661Z,4.13
2022-10-08T20:47:02.303Z,2.80
2022-10-08T20:52:04.885Z,7.20
2022-10-08T20:57:07.193Z,6.80
2022-10-08T21:02:10.391Z,6.55
2022-10-08T21:07:11.869Z,3.90
2022-10-08T21:12:13.300Z,4.18
2022-10-08T21:17:14.776Z,3.35
2022-10-08T21:22:16.215Z,4.50
2022-10-08T21:27:17.701Z,6.50
2022-10-08T21:32:19.406Z,6.93
2022-10-08T21:37:20.811Z,11.95
2022-10-08T21:42:22.251Z,6.00
2022-10-08T21:47:23.702Z,8.65
2022-10-08T21:52:25.218Z,5.68
2022-10-08T21:57:26.691Z,4.68
2022-10-08T22:02:28.200Z,6.50
2022-10-08T22:07:29.767Z,6.95
2022-10-08T22:12:31.245Z,6.28
2022-10-08T22:17:32.682Z,6.68
2022-10-08T22:22:34.144Z,6.10
2022-10-08T22:27:35.565Z,7.60
2022-10-08T22:32:37.016Z,9.65
2022-10-08T22:37:38.543Z,8.77
2022-10-08T22:42:40.211Z,5.32
2022-10-08T22:47:41.620Z,6.95
2022-10-08T22:52:43.761Z,6.68
2022-10-08T22:57:45.235Z,3.05
2022-10-08T23:02:46.865Z,2.08
2022-10-08T23:07:48.543Z,5.30
2022-10-08T23:12:52.120Z,4.03
2022-10-08T23:17:53.661Z,3.80
2022-10-08T23:22:55.108Z,15.70
2022-10-08T23:27:56.602Z,7.18
2022-10-08T23:32:58.057Z,9.20
2022-10-08T23:37:59.488Z,5.50
2022-10-08T23:43:00.916Z,5.97
2022-10-08T23:48:02.349Z,3.28
2022-10-08T23:53:04.296Z,5.15
2022-10-08T23:58:05.777Z,4.50
